createdAt,value
2023-04-16T00:01:43.534Z,9.20
2023-04-16T00:04:10.948Z,9.20
2023-04-16T00:06:38.025Z,9.30
2023-04-16T00:09:04.988Z,9.20
2023-04-16T00:11:31.902Z,9.20
2023-04-16T00:13:59.015Z,9.20
2023-04-16T00:16:25.985Z,9.20
2023-04-16T00:18:52.872Z,9.30
2023-04-16T00:21:20.599Z,9.30
2023-04-16T00:23:50.268Z,9.20
2023-04-16T00:26:17.250Z,9.30
2023-04-16T00:28:44.256Z,9.30
2023-04-16T00:31:11.146Z,9.30
2023-04-16T00:33:38.044Z,9.30
2023-04-16T00:36:05.578Z,9.20
2023-04-16T00:38:32.739Z,9.20
2023-04-16T00:40:59.751Z,9.20
2023-04-16T00:43:27.354Z,9.10
2023-04-16T00:45:56.781Z,9.10
2023-04-16T00:48:24.457Z,9.10
2023-04-16T00:50:51.348Z,9.10
2023-04-16T00:53:18.397Z,9.20
2023-04-16T00:55:45.990Z,9.20
2023-04-16T00:58:13.145Z,9.10
2023-04-16T01:00:40.192Z,9.20
2023-04-16T01:03:07.226Z,9.20
2023-04-16T01:05:35.407Z,9.20
2023-04-16T01:08:02.347Z,9.20
2023-04-16T01:10:29.192Z,9.20
2023-04-16T01:12:55.982Z,9.10
2023-04-16T01:15:22.879Z,9.20
2023-04-16T01:17:49.732Z,9.20
2023-04-16T01:20:16.656Z,9.10
2023-04-16T01:22:43.488Z,9.10
2023-04-16T01:25:14.864Z,9.10
2023-04-16T01:27:41.763Z,9.20
2023-04-16T01:30:09.005Z,9.20
2023-04-16T01:32:35.936Z,9.10
2023-04-16T01:35:02.711Z,9.10
2023-04-16T01:37:30.611Z,9.10
2023-04-16T01:39:57.622Z,9.10
2023-04-16T01:42:24.467Z,9.10
2023-04-16T01:44:51.266Z,9.20
2023-04-16T01:47:18.375Z,9.10
2023-04-16T01:49:48.186Z,9.10
2023-04-16T01:52:15.437Z,9.10
2023-04-16T01:54:42.291Z,9.10
2023-04-16T01:57:09.466Z,9.00
2023-04-16T01:59:36.245Z,9.00
2023-04-16T02:02:08.883Z,9.00
2023-04-16T02:04:35.781Z,9.00
2023-04-16T02:07:03.528Z,9.00
2023-04-16T02:09:58.995Z,9.00
2023-04-16T02:12:26.645Z,8.90
2023-04-16T02:14:56.514Z,9.00
2023-04-16T02:17:23.400Z,9.00
2023-04-16T02:19:50.319Z,9.00
2023-04-16T02:22:17.212Z,9.00
2023-04-16T02:24:44.192Z,8.90
2023-04-16T02:27:11.232Z,8.90
2023-04-16T02:29:38.074Z,8.90
2023-04-16T02:32:05.119Z,8.90
2023-04-16T02:34:33.662Z,8.90
2023-04-16T02:37:00.529Z,8.90
2023-04-16T02:39:27.437Z,8.80
2023-04-16T02:41:54.397Z,8.90
2023-04-16T02:44:21.662Z,8.90
2023-04-16T02:46:48.512Z,8.90
2023-04-16T02:49:15.453Z,8.90
2023-04-16T02:51:42.345Z,8.90
2023-04-16T02:54:09.184Z,8.90
2023-04-16T02:56:36.432Z,8.90
2023-04-16T02:59:03.281Z,8.90
2023-04-16T03:01:30.168Z,8.90
2023-04-16T03:03:57.075Z,8.90
2023-04-16T03:06:24.082Z,8.90
2023-04-16T03:08:51.198Z,8.90
2023-04-16T03:11:18.077Z,8.90
2023-04-16T03:13:44.941Z,8.80
2023-04-16T03:16:11.803Z,8.90
2023-04-16T03:18:38.648Z,8.80
2023-04-16T03:21:05.904Z,8.90
2023-04-16T03:23:32.721Z,8.90
2023-04-16T03:25:59.541Z,8.90
2023-04-16T03:28:26.370Z,8.90
2023-04-16T03:30:53.821Z,8.90
2023-04-16T03:33:21.641Z,9.00
2023-04-16T03:35:58.959Z,8.90
2023-04-16T03:38:26.768Z,8.90
2023-04-16T03:40:54.241Z,8.80
2023-04-16T03:43:22.377Z,8.90
2023-04-16T03:45:49.505Z,9.00
2023-04-16T03:48:16.488Z,8.90
2023-04-16T03:50:47.625Z,8.90
2023-04-16T03:53:14.671Z,8.80
2023-04-16T03:55:42.542Z,8.90
2023-04-16T03:58:09.368Z,8.90
2023-04-16T04:00:38.102Z,9.00
2023-04-16T04:03:05.152Z,9.00
2023-04-16T04:05:35.797Z,8.90
2023-04-16T04:08:05.296Z,9.00
2023-04-16T04:10:36.169Z,9.00
2023-04-16T04:13:04.299Z,9.00
2023-04-16T04:15:31.196Z,9.00
2023-04-16T04:17:58.186Z,9.00
2023-04-16T04:20:25.303Z,9.00
2023-04-16T04:22:52.488Z,9.00
2023-04-16T04:25:19.296Z,9.00
2023-04-16T04:27:46.197Z,9.00
2023-04-16T04:30:13.081Z,9.00
2023-04-16T04:32:40.037Z,9.10
2023-04-16T04:35:07.329Z,9.10
2023-04-16T04:37:34.104Z,9.10
2023-04-16T04:40:01.046Z,9.10
2023-04-16T04:42:27.824Z,9.10
2023-04-16T04:44:54.578Z,9.20
2023-04-16T04:47:21.359Z,9.20
2023-04-16T04:49:48.199Z,9.30
2023-04-16T04:52:15.045Z,9.20
2023-04-16T04:54:41.884Z,9.30
2023-04-16T04:57:08.980Z,9.30
2023-04-16T04:59:35.894Z,9.30
2023-04-16T05:02:03.505Z,9.30
2023-04-16T05:04:31.397Z,9.20
2023-04-16T05:06:58.249Z,9.30
2023-04-16T05:09:25.457Z,9.30
2023-04-16T05:11:52.442Z,9.30
2023-04-16T05:14:19.283Z,9.30
2023-04-16T05:16:50.254Z,9.30
2023-04-16T05:19:17.572Z,9.40
2023-04-16T05:21:44.403Z,9.40
2023-04-16T05:24:12.066Z,9.50
2023-04-16T05:26:40.578Z,9.50
2023-04-16T05:29:07.523Z,9.50
2023-04-16T05:31:34.572Z,9.60
2023-04-16T05:34:01.355Z,9.60
2023-04-16T05:36:28.269Z,9.70
2023-04-16T05:38:57.234Z,9.70
2023-04-16T05:41:24.371Z,9.80
2023-04-16T05:43:51.174Z,9.80
2023-04-16T05:46:18.100Z,9.80
2023-04-16T05:48:44.931Z,9.80
2023-04-16T05:51:11.751Z,9.70
2023-04-16T05:53:38.607Z,9.70
2023-04-16T05:56:05.864Z,9.70
2023-04-16T05:58:32.718Z,9.70
2023-04-16T06:01:12.897Z,9.80
2023-04-16T06:03:39.778Z,9.80
2023-04-16T06:06:09.044Z,9.80
2023-04-16T06:08:35.884Z,9.90
2023-04-16T06:11:04.281Z,9.90
2023-04-16T06:13:31.362Z,9.80
2023-04-16T06:15:58.191Z,9.90
2023-04-16T06:18:25.261Z,10.00
2023-04-16T06:20:56.330Z,10.10
2023-04-16T06:23:23.495Z,10.10
2023-04-16T06:25:50.609Z,10.10
2023-04-16T06:28:17.543Z,10.10
2023-04-16T06:30:44.765Z,10.10
2023-04-16T06:33:11.897Z,10.20
2023-04-16T06:35:38.948Z,10.20
2023-04-16T06:38:05.808Z,10.30
2023-04-16T06:40:32.636Z,10.30
2023-04-16T06:43:00.089Z,10.40
2023-04-16T06:45:26.957Z,10.50
2023-04-16T06:47:53.875Z,10.50
2023-04-16T06:50:21.272Z,10.60
2023-04-16T06:52:48.189Z,10.60
2023-04-16T06:55:15.098Z,10.60
2023-04-16T06:57:41.965Z,10.70
2023-04-16T07:00:09.293Z,10.70
2023-04-16T07:02:36.169Z,10.60
2023-04-16T07:05:03.178Z,10.70
2023-04-16T07:07:30.048Z,10.60
2023-04-16T07:09:56.987Z,10.50
2023-04-16T07:12:23.810Z,10.60
2023-04-16T07:14:50.715Z,10.70
2023-04-16T07:17:17.625Z,10.70
2023-04-16T07:19:48.306Z,10.60
2023-04-16T07:22:15.824Z,10.60
2023-04-16T07:24:42.729Z,10.60
2023-04-16T07:27:09.635Z,10.60
2023-04-16T07:29:36.587Z,10.60
2023-04-16T07:32:03.526Z,10.60
2023-04-16T07:34:30.461Z,10.50
2023-04-16T07:36:57.297Z,10.50
2023-04-16T07:39:24.146Z,10.50
2023-04-16T07:41:51.052Z,10.50
2023-04-16T07:44:17.830Z,10.60
2023-04-16T07:46:47.279Z,10.50
2023-04-16T07:49:15.135Z,10.50
2023-04-16T07:51:42.081Z,10.60
2023-04-16T07:54:08.982Z,10.70
2023-04-16T07:56:36.384Z,10.80
2023-04-16T07:59:18.358Z,10.90
2023-04-16T08:01:49.652Z,11.00
2023-04-16T08:04:23.017Z,11.20
2023-04-16T08:06:51.585Z,11.30
2023-04-16T08:09:20.220Z,11.40
2023-04-16T08:11:49.237Z,11.50
2023-04-16T08:14:19.161Z,11.50
2023-04-16T08:16:46.019Z,11.60
2023-04-16T08:19:13.016Z,11.60
2023-04-16T08:21:40.218Z,11.70
2023-04-16T08:24:07.358Z,11.70
2023-04-16T08:26:34.457Z,11.70
2023-04-16T08:29:01.337Z,11.80
2023-04-16T08:31:28.324Z,11.90
2023-04-16T08:33:55.330Z,12.00
2023-04-16T08:36:22.257Z,12.00
2023-04-16T08:38:49.455Z,12.10
2023-04-16T08:41:16.529Z,12.10
2023-04-16T08:43:45.467Z,12.10
2023-04-16T08:46:13.092Z,12.10
2023-04-16T08:48:43.681Z,12.00
2023-04-16T08:51:12.142Z,12.00
2023-04-16T08:54:05.510Z,12.00
2023-04-16T08:56:36.664Z,12.00
2023-04-16T08:59:05.704Z,12.00
2023-04-16T09:01:36.087Z,12.10
2023-04-16T09:04:03.798Z,12.10
2023-04-16T09:06:31.510Z,12.20
2023-04-16T09:09:01.526Z,12.20
2023-04-16T09:11:28.447Z,12.30
2023-04-16T09:13:55.529Z,12.40
2023-04-16T09:16:23.433Z,12.50
2023-04-16T09:18:51.760Z,12.50
2023-04-16T09:21:22.110Z,12.70
2023-04-16T09:23:52.915Z,12.70
2023-04-16T09:26:20.951Z,12.90
2023-04-16T09:28:48.985Z,13.00
2023-04-16T09:31:18.034Z,13.20
2023-04-16T09:34:04.582Z,13.30
2023-04-16T09:36:35.638Z,13.10
2023-04-16T09:39:04.182Z,13.10
2023-04-16T09:41:35.919Z,13.20
2023-04-16T09:44:05.271Z,13.30
2023-04-16T09:46:43.057Z,13.50
2023-04-16T09:49:15.594Z,13.60
2023-04-16T09:51:48.039Z,13.70
2023-04-16T09:54:15.705Z,13.80
2023-04-16T09:56:46.213Z,13.80
2023-04-16T09:59:21.593Z,13.70
2023-04-16T10:01:49.860Z,13.70
2023-04-16T10:04:17.284Z,13.80
2023-04-16T10:07:01.633Z,13.80
2023-04-16T10:09:38.974Z,13.80
2023-04-16T10:12:06.833Z,13.80
2023-04-16T10:14:34.263Z,13.90
2023-04-16T10:17:01.202Z,13.80
2023-04-16T10:19:28.239Z,13.80
2023-04-16T10:21:57.366Z,13.80
2023-04-16T10:24:33.130Z,13.90
2023-04-16T10:27:12.343Z,14.10
2023-04-16T10:29:39.544Z,14.20
2023-04-16T10:32:06.995Z,14.30
2023-04-16T10:34:35.038Z,14.30
2023-04-16T10:37:01.882Z,14.30
2023-04-16T10:39:29.614Z,14.40
2023-04-16T10:42:14.850Z,14.40
2023-04-16T10:45:00.331Z,14.30
2023-04-16T10:47:32.849Z,14.20
2023-04-16T10:50:16.429Z,14.20
2023-04-16T10:52:43.402Z,14.10
2023-04-16T10:55:17.399Z,14.30
2023-04-16T10:57:44.349Z,14.40
2023-04-16T11:00:23.612Z,14.40
2023-04-16T11:02:54.336Z,14.50
2023-04-16T11:05:24.940Z,14.50
2023-04-16T11:07:51.790Z,14.50
2023-04-16T11:10:18.683Z,14.70
2023-04-16T11:12:48.892Z,14.80
2023-04-16T11:15:19.220Z,14.90
2023-04-16T11:17:51.780Z,14.80
2023-04-16T11:20:24.840Z,14.80
2023-04-16T11:22:56.938Z,14.70
2023-04-16T11:25:26.160Z,14.70
2023-04-16T11:27:53.473Z,15.00
2023-04-16T11:30:29.919Z,15.20
2023-04-16T11:32:57.095Z,15.30
2023-04-16T11:35:24.199Z,15.50
2023-04-16T11:37:56.417Z,15.80
2023-04-16T11:40:23.976Z,16.00
2023-04-16T11:42:51.229Z,15.90
2023-04-16T11:45:22.404Z,15.90
2023-04-16T11:47:55.539Z,15.80
2023-04-16T11:50:26.242Z,15.80
2023-04-16T11:53:03.020Z,15.60
2023-04-16T11:55:31.185Z,15.70
2023-04-16T11:58:11.036Z,15.70
2023-04-16T12:00:41.713Z,16.00
2023-04-16T12:03:09.057Z,16.70
2023-04-16T12:05:39.092Z,17.60
2023-04-16T12:08:11.555Z,18.70
2023-04-16T12:10:56.619Z,19.20
2023-04-16T12:13:23.627Z,19.20
2023-04-16T12:15:56.202Z,19.90
2023-04-16T12:18:29.536Z,20.50
2023-04-16T12:20:56.452Z,20.50
2023-04-16T12:23:25.952Z,20.20
2023-04-16T12:25:55.147Z,19.80
2023-04-16T12:28:32.771Z,19.40
2023-04-16T12:31:00.576Z,19.20
2023-04-16T12:33:27.648Z,19.20
2023-04-16T12:35:57.418Z,19.00
2023-04-16T12:38:31.705Z,18.80
2023-04-16T12:40:59.179Z,18.70
2023-04-16T12:43:29.251Z,18.60
2023-04-16T12:45:56.320Z,18.60
2023-04-16T12:48:23.249Z,18.80
2023-04-16T12:50:53.267Z,19.00
2023-04-16T12:53:20.104Z,19.00
2023-04-16T12:55:47.057Z,19.00
2023-04-16T12:58:14.072Z,19.40
2023-04-16T13:00:40.936Z,20.20
2023-04-16T13:03:07.961Z,21.00
2023-04-16T13:05:35.106Z,21.20
2023-04-16T13:08:03.365Z,21.10
2023-04-16T13:10:30.679Z,21.50
2023-04-16T13:12:58.764Z,21.90
2023-04-16T13:15:25.560Z,22.10
2023-04-16T13:17:52.377Z,22.20
2023-04-16T13:20:31.892Z,22.60
2023-04-16T13:22:59.232Z,22.80
2023-04-16T13:25:26.090Z,23.20
2023-04-16T13:27:52.871Z,23.50
2023-04-16T13:30:19.788Z,23.40
2023-04-16T13:32:47.002Z,23.60
2023-04-16T13:35:13.901Z,23.50
2023-04-16T13:37:40.988Z,23.30
2023-04-16T13:40:08.658Z,22.90
2023-04-16T13:42:38.593Z,22.00
2023-04-16T13:45:05.919Z,21.40
2023-04-16T13:47:33.727Z,21.00
2023-04-16T13:50:00.996Z,20.80
2023-04-16T13:52:28.080Z,20.50
2023-04-16T13:54:55.099Z,20.30
2023-04-16T13:57:25.441Z,20.00
2023-04-16T13:59:56.936Z,19.60
2023-04-16T14:02:26.051Z,19.50
2023-04-16T14:04:56.780Z,19.30
2023-04-16T14:07:27.027Z,19.00
2023-04-16T14:09:54.244Z,19.00
2023-04-16T14:12:21.146Z,19.00
2023-04-16T14:14:49.100Z,18.80
2023-04-16T14:17:16.185Z,18.70
2023-04-16T14:19:43.068Z,18.50
2023-04-16T14:22:10.033Z,18.20
2023-04-16T14:24:37.079Z,18.00
2023-04-16T14:27:05.083Z,17.80
2023-04-16T14:29:32.509Z,17.80
2023-04-16T14:31:59.499Z,17.70
2023-04-16T14:34:26.405Z,17.50
2023-04-16T14:36:53.310Z,17.50
2023-04-16T14:39:20.245Z,17.50
2023-04-16T14:41:47.246Z,17.70
2023-04-16T14:44:14.063Z,18.20
2023-04-16T14:46:43.398Z,18.60
2023-04-16T14:49:13.676Z,19.10
2023-04-16T14:51:42.097Z,19.60
2023-04-16T14:54:09.748Z,20.20
2023-04-16T14:56:36.543Z,20.60
2023-04-16T14:59:03.740Z,21.00
2023-04-16T15:01:30.679Z,21.10
2023-04-16T15:03:59.214Z,21.20
2023-04-16T15:06:30.434Z,21.10
2023-04-16T15:08:57.823Z,21.30
2023-04-16T15:11:24.724Z,21.70
2023-04-16T15:13:51.554Z,22.00
2023-04-16T15:16:18.713Z,22.10
2023-04-16T15:18:45.736Z,21.80
2023-04-16T15:21:12.863Z,21.80
2023-04-16T15:23:39.818Z,21.90
2023-04-16T15:26:06.727Z,21.70
2023-04-16T15:28:33.841Z,21.60
2023-04-16T15:31:00.903Z,21.10
2023-04-16T15:33:28.262Z,20.60
2023-04-16T15:39:33.918Z,19.40
2023-04-16T15:42:04.024Z,18.90
2023-04-16T15:44:32.909Z,18.40
2023-04-16T15:47:00.488Z,18.20
2023-04-16T15:49:27.459Z,17.60
2023-04-16T15:51:55.680Z,17.40
2023-04-16T15:54:22.648Z,17.30
2023-04-16T15:56:50.231Z,17.10
2023-04-16T15:59:17.317Z,17.00
2023-04-16T16:01:44.257Z,16.70
2023-04-16T16:04:13.776Z,16.60
2023-04-16T16:06:42.276Z,16.30
2023-04-16T16:09:15.429Z,16.10
2023-04-16T16:11:45.686Z,16.00
2023-04-16T16:14:14.916Z,16.00
2023-04-16T16:16:55.002Z,16.30
2023-04-16T16:19:21.978Z,16.30
2023-04-16T16:21:49.339Z,16.40
2023-04-16T16:24:16.387Z,16.20
2023-04-16T16:26:43.509Z,16.30
2023-04-16T16:29:10.937Z,16.40
2023-04-16T16:31:45.878Z,16.60
2023-04-16T16:34:21.241Z,16.50
2023-04-16T16:36:48.991Z,16.50
2023-04-16T16:39:16.022Z,16.30
2023-04-16T16:41:43.851Z,16.30
2023-04-16T16:44:11.790Z,16.30
2023-04-16T16:46:51.456Z,16.00
2023-04-16T16:49:18.615Z,15.80
2023-04-16T16:51:46.688Z,15.70
2023-04-16T16:54:14.256Z,15.60
2023-04-16T16:56:41.792Z,15.40
2023-04-16T16:59:13.796Z,15.00
2023-04-16T17:01:40.653Z,14.70
2023-04-16T17:04:08.052Z,14.50
2023-04-16T17:06:35.094Z,14.40
2023-04-16T17:09:02.228Z,14.30
2023-04-16T17:11:29.408Z,14.10
2023-04-16T17:13:56.375Z,14.00
2023-04-16T17:16:24.146Z,13.80
2023-04-16T17:18:51.238Z,13.50
2023-04-16T17:21:18.114Z,13.40
2023-04-16T17:23:47.555Z,13.20
2023-04-16T17:26:14.476Z,13.10
2023-04-16T17:28:41.408Z,13.10
2023-04-16T17:31:08.610Z,13.00
2023-04-16T17:33:35.838Z,12.90
2023-04-16T17:36:02.727Z,12.90
2023-04-16T17:38:29.589Z,12.70
2023-04-16T17:40:57.136Z,12.60
2023-04-16T17:43:24.255Z,12.60
2023-04-16T17:45:51.254Z,12.40
2023-04-16T17:48:18.190Z,12.40
2023-04-16T17:50:48.999Z,12.30
2023-04-16T17:53:15.870Z,12.30
2023-04-16T17:55:54.611Z,12.20
2023-04-16T17:58:23.107Z,12.10
2023-04-16T18:05:08.284Z,12.00
2023-04-16T18:07:36.441Z,11.90
2023-04-16T18:10:03.503Z,11.80
2023-04-16T18:12:30.553Z,11.80
2023-04-16T18:14:57.697Z,11.80
2023-04-16T18:17:24.728Z,11.70
2023-04-16T18:19:54.111Z,11.60
2023-04-16T18:22:21.126Z,11.70
2023-04-16T18:24:48.080Z,11.60
2023-04-16T18:27:15.072Z,11.60
2023-04-16T18:29:43.841Z,11.60
2023-04-16T18:32:12.506Z,11.60
2023-04-16T18:34:39.657Z,11.60
2023-04-16T18:37:07.120Z,11.50
2023-04-16T18:39:34.212Z,11.50
2023-04-16T18:42:01.514Z,11.40
2023-04-16T18:44:28.388Z,11.40
2023-04-16T18:46:55.281Z,11.40
2023-04-16T18:49:22.210Z,11.30
2023-04-16T18:51:49.065Z,11.30
2023-04-16T18:54:16.185Z,11.30
2023-04-16T18:56:43.141Z,11.30
2023-04-16T18:59:10.267Z,11.20
2023-04-16T19:01:37.335Z,11.20
2023-04-16T19:04:04.536Z,11.10
2023-04-16T19:06:32.253Z,11.10
2023-04-16T19:08:59.111Z,11.10
2023-04-16T19:11:25.930Z,11.00
2023-04-16T19:13:52.798Z,11.00
2023-04-16T19:16:19.633Z,11.00
2023-04-16T19:18:46.416Z,11.00
2023-04-16T19:21:14.354Z,11.00
2023-04-16T19:23:41.194Z,10.90
2023-04-16T19:26:10.513Z,10.90
2023-04-16T19:28:38.799Z,10.90
2023-04-16T19:31:06.487Z,10.90
2023-04-16T19:33:33.508Z,10.80
2023-04-16T19:36:01.838Z,10.80
2023-04-16T19:38:29.197Z,10.70
2023-04-16T19:40:56.041Z,10.60
2023-04-16T19:43:22.971Z,10.60
2023-04-16T19:45:53.639Z,10.60
2023-04-16T19:48:21.496Z,10.60
2023-04-16T19:50:48.440Z,10.50
2023-04-16T19:53:18.030Z,10.50
2023-04-16T19:55:44.936Z,10.40
2023-04-16T19:58:11.962Z,10.40
2023-04-16T20:00:43.177Z,10.40
2023-04-16T20:03:10.132Z,10.30
2023-04-16T20:05:36.978Z,10.30
2023-04-16T20:08:03.888Z,10.20
2023-04-16T20:10:31.635Z,10.20
2023-04-16T20:12:58.706Z,10.10
2023-04-16T20:15:25.823Z,10.10
2023-04-16T20:17:53.443Z,10.10
2023-04-16T20:20:22.650Z,10.00
2023-04-16T20:22:49.548Z,10.00
2023-04-16T20:25:19.889Z,9.90
2023-04-16T20:27:47.396Z,9.90
2023-04-16T20:30:14.402Z,9.90
2023-04-16T20:32:41.354Z,9.80
2023-04-16T20:35:11.120Z,9.80
2023-04-16T20:37:38.733Z,9.80
2023-04-16T20:40:09.532Z,9.80
2023-04-16T20:42:36.497Z,9.80
2023-04-16T20:45:03.631Z,9.70
2023-04-16T20:47:30.749Z,9.80
2023-04-16T20:49:58.186Z,9.70
2023-04-16T20:52:25.081Z,9.70
2023-04-16T20:54:52.372Z,9.60
2023-04-16T20:57:19.382Z,9.60
2023-04-16T20:59:46.195Z,9.60
2023-04-16T21:02:13.315Z,9.50
2023-04-16T21:04:40.617Z,9.60
2023-04-16T21:07:07.683Z,9.50
2023-04-16T21:09:34.542Z,9.60
2023-04-16T21:12:01.706Z,9.50
2023-04-16T21:14:28.724Z,9.50
2023-04-16T21:16:55.584Z,9.50
2023-04-16T21:19:22.558Z,9.50
2023-04-16T21:21:49.420Z,9.40
2023-04-16T21:24:16.279Z,9.50
2023-04-16T21:26:43.115Z,9.40
2023-04-16T21:29:10.130Z,9.50
2023-04-16T21:31:37.147Z,9.40
2023-04-16T21:34:04.022Z,9.50
2023-04-16T21:36:33.085Z,9.50
2023-04-16T21:39:00.059Z,9.50
2023-04-16T21:41:27.130Z,9.60
2023-04-16T21:43:54.026Z,9.60
2023-04-16T21:46:24.154Z,9.60
2023-04-16T21:49:00.211Z,9.70
2023-04-16T21:51:31.307Z,9.60
2023-04-16T21:53:58.447Z,9.70
2023-04-16T21:56:26.035Z,9.70
2023-04-16T21:58:52.868Z,9.70
2023-04-16T22:01:19.804Z,9.70
2023-04-16T22:03:50.749Z,9.70
2023-04-16T22:06:18.230Z,9.60
2023-04-16T22:08:45.147Z,9.60
2023-04-16T22:11:12.151Z,9.50
2023-04-16T22:13:42.483Z,9.50
2023-04-16T22:16:11.494Z,9.40
2023-04-16T22:19:02.552Z,9.50
2023-04-16T22:21:29.410Z,9.40
2023-04-16T22:23:56.269Z,9.30
2023-04-16T22:26:23.163Z,9.40
2023-04-16T22:28:49.979Z,9.40
2023-04-16T22:31:16.891Z,9.30
2023-04-16T22:33:45.517Z,9.30
2023-04-16T22:36:12.362Z,9.30
2023-04-16T22:38:39.723Z,9.30
2023-04-16T22:41:06.522Z,9.20
2023-04-16T22:43:37.014Z,9.20
2023-04-16T22:46:06.505Z,9.30
2023-04-16T22:48:36.441Z,9.30
2023-04-16T22:51:04.478Z,9.30
2023-04-16T22:53:31.667Z,9.30
2023-04-16T22:55:58.514Z,9.30
2023-04-16T22:58:25.416Z,9.20
2023-04-16T23:00:56.175Z,9.30
2023-04-16T23:03:23.175Z,9.30
2023-04-16T23:05:50.006Z,9.30
2023-04-16T23:08:16.867Z,9.30
2023-04-16T23:10:48.184Z,9.20
2023-04-16T23:13:15.711Z,9.10
2023-04-16T23:15:43.725Z,9.30
2023-04-16T23:18:10.664Z,9.20
2023-04-16T23:20:37.535Z,9.20
2023-04-16T23:23:04.353Z,9.20
2023-04-16T23:25:31.621Z,9.30
2023-04-16T23:27:58.491Z,9.30
2023-04-16T23:30:29.327Z,9.20
2023-04-16T23:32:56.452Z,9.20
2023-04-16T23:35:23.360Z,9.20
2023-04-16T23:37:50.186Z,9.20
2023-04-16T23:40:17.345Z,9.20
2023-04-16T23:42:44.166Z,9.20
2023-04-16T23:45:11.755Z,9.20
2023-04-16T23:47:38.707Z,9.20
2023-04-16T23:50:06.208Z,9.20
2023-04-16T23:52:33.003Z,9.20
2023-04-16T23:54:59.849Z,9.20
2023-04-16T23:57:26.653Z,9.20
2023-04-16T23:59:53.409Z,9.20
